createdAt,value
2018-11-11T00:02:11.718Z,9.50
2018-11-11T00:04:23.962Z,9.50
2018-11-11T00:06:36.207Z,9.43
2018-11-11T00:08:48.416Z,9.40
2018-11-11T00:11:00.587Z,8.87
2018-11-11T00:13:12.914Z,9.50
2018-11-11T00:15:25.147Z,9.60
2018-11-11T00:17:37.330Z,9.93
2018-11-11T00:19:49.538Z,9.20
2018-11-11T00:22:01.733Z,9.80
2018-11-11T00:24:13.956Z,10.13
2018-11-11T00:26:26.233Z,9.60
2018-11-11T00:28:38.531Z,8.80
2018-11-11T00:30:50.640Z,9.97
2018-11-11T00:33:02.838Z,9.90
2018-11-11T00:35:15.132Z,9.33
2018-11-11T00:37:27.372Z,9.93
2018-11-11T00:39:39.678Z,10.20
2018-11-11T00:41:51.849Z,10.27
2018-11-11T00:44:04.135Z,11.60
2018-11-11T00:46:16.355Z,10.67
2018-11-11T00:48:28.510Z,9.57
2018-11-11T00:50:40.732Z,10.67
2018-11-11T00:52:52.974Z,10.27
2018-11-11T00:55:07.062Z,10.17
2018-11-11T00:57:19.313Z,10.97
2018-11-11T00:59:31.505Z,11.03
2018-11-11T01:01:43.705Z,11.20
2018-11-11T01:03:55.904Z,10.93
2018-11-11T01:06:08.096Z,12.57
2018-11-11T01:08:20.436Z,10.90
2018-11-11T01:10:32.632Z,12.13
2018-11-11T01:12:45.341Z,12.87
2018-11-11T01:14:57.613Z,11.70
2018-11-11T01:17:09.898Z,12.47
2018-11-11T01:19:22.131Z,12.83
2018-11-11T01:21:34.333Z,12.57
2018-11-11T01:23:46.571Z,12.60
2018-11-11T01:25:58.783Z,12.73
2018-11-11T01:28:11.094Z,12.90
2018-11-11T01:30:23.288Z,13.80
2018-11-11T01:32:35.662Z,14.37
2018-11-11T01:34:47.922Z,13.87
2018-11-11T01:37:00.130Z,13.23
2018-11-11T01:39:12.333Z,13.00
2018-11-11T01:41:24.540Z,13.30
2018-11-11T01:43:36.776Z,12.80
2018-11-11T01:45:48.968Z,12.53
2018-11-11T01:48:01.163Z,13.43
2018-11-11T01:50:13.583Z,12.47
2018-11-11T01:52:25.922Z,10.63
2018-11-11T01:54:38.182Z,10.80
2018-11-11T01:56:50.358Z,10.73
2018-11-11T01:59:02.591Z,9.93
2018-11-11T02:01:14.826Z,10.60
2018-11-11T02:03:27.058Z,10.20
2018-11-11T02:05:39.275Z,10.20
2018-11-11T02:07:51.462Z,11.17
2018-11-11T02:10:04.585Z,10.37
2018-11-11T02:12:16.730Z,10.27
2018-11-11T02:14:28.954Z,9.90
2018-11-11T02:16:41.151Z,10.57
2018-11-11T02:18:53.362Z,9.57
2018-11-11T02:21:05.577Z,9.00
2018-11-11T02:23:17.800Z,9.53
2018-11-11T02:25:30.053Z,8.37
2018-11-11T02:27:42.374Z,7.70
2018-11-11T02:29:54.564Z,7.70
2018-11-11T02:32:06.807Z,7.47
2018-11-11T02:34:19.032Z,7.27
2018-11-11T02:36:31.259Z,7.23
2018-11-11T02:38:43.500Z,8.17
2018-11-11T02:40:55.765Z,8.10
2018-11-11T02:43:08.012Z,7.00
2018-11-11T02:45:20.486Z,7.07
2018-11-11T02:47:32.679Z,6.50
2018-11-11T02:49:44.918Z,7.23
2018-11-11T02:51:57.367Z,6.70
2018-11-11T02:54:09.599Z,6.90
2018-11-11T02:56:21.795Z,6.80
2018-11-11T02:58:34.031Z,6.90
2018-11-11T03:00:46.235Z,6.50
2018-11-11T03:02:58.453Z,6.47
2018-11-11T03:05:12.026Z,7.43
2018-11-11T03:07:24.222Z,7.20
2018-11-11T03:09:36.431Z,7.13
2018-11-11T03:11:48.631Z,7.60
2018-11-11T03:14:00.823Z,6.60
2018-11-11T03:16:13.002Z,6.03
2018-11-11T03:18:25.211Z,5.37
2018-11-11T03:20:37.409Z,6.33
2018-11-11T03:22:49.614Z,5.93
2018-11-11T03:25:02.012Z,5.77
2018-11-11T03:27:14.193Z,5.73
2018-11-11T03:29:26.403Z,5.00
2018-11-11T03:31:38.595Z,5.30
2018-11-11T03:33:50.795Z,5.17
2018-11-11T03:36:02.976Z,5.03
2018-11-11T03:38:15.156Z,4.47
2018-11-11T03:40:27.463Z,5.50
2018-11-11T03:42:39.807Z,5.13
2018-11-11T03:44:52.075Z,4.27
2018-11-11T03:47:04.639Z,5.10
2018-11-11T03:49:16.871Z,5.23
2018-11-11T03:51:29.090Z,4.30
2018-11-11T03:53:41.291Z,4.87
2018-11-11T03:55:53.628Z,5.17
2018-11-11T03:58:05.883Z,4.87
2018-11-11T04:00:18.103Z,4.73
2018-11-11T04:02:30.394Z,4.33
2018-11-11T04:04:42.588Z,5.03
2018-11-11T04:06:54.770Z,4.83
2018-11-11T04:09:09.210Z,5.27
2018-11-11T04:11:21.417Z,4.90
2018-11-11T04:13:33.819Z,4.47
2018-11-11T04:15:46.018Z,4.87
2018-11-11T04:17:58.249Z,4.10
2018-11-11T04:20:12.548Z,3.70
2018-11-11T04:22:24.796Z,3.80
2018-11-11T04:24:36.990Z,4.47
2018-11-11T04:26:49.191Z,3.97
2018-11-11T04:29:01.384Z,3.80
2018-11-11T04:31:13.609Z,3.63
2018-11-11T04:33:25.775Z,3.90
2018-11-11T04:35:37.984Z,4.03
2018-11-11T04:37:50.170Z,4.67
2018-11-11T04:40:02.481Z,4.10
2018-11-11T04:42:14.715Z,4.10
2018-11-11T04:44:27.045Z,4.10
2018-11-11T04:46:39.316Z,5.80
2018-11-11T04:48:51.512Z,7.20
2018-11-11T04:51:03.870Z,9.50
2018-11-11T04:53:16.115Z,10.70
2018-11-11T04:55:28.300Z,10.07
2018-11-11T04:57:41.210Z,12.97
2018-11-11T04:59:53.406Z,12.53
2018-11-11T05:02:05.638Z,12.20
2018-11-11T05:04:17.834Z,11.37
2018-11-11T05:06:29.993Z,10.53
2018-11-11T05:08:42.243Z,10.87
2018-11-11T05:10:54.479Z,9.57
2018-11-11T05:13:06.735Z,8.07
2018-11-11T05:15:18.935Z,9.23
2018-11-11T05:17:31.144Z,9.30
2018-11-11T05:19:43.323Z,9.50
2018-11-11T05:21:55.547Z,9.00
2018-11-11T05:24:07.716Z,7.40
2018-11-11T05:26:19.883Z,8.50
2018-11-11T05:28:32.087Z,8.27
2018-11-11T05:30:44.280Z,8.87
2018-11-11T05:32:56.481Z,8.63
2018-11-11T05:35:09.586Z,8.40
2018-11-11T05:37:21.783Z,7.23
2018-11-11T05:39:34.028Z,8.63
2018-11-11T05:41:46.194Z,8.37
2018-11-11T05:43:58.414Z,8.33
2018-11-11T05:46:10.675Z,8.60
2018-11-11T05:48:22.842Z,7.70
2018-11-11T05:50:35.050Z,8.80
2018-11-11T05:52:47.239Z,8.37
2018-11-11T05:54:59.437Z,8.27
2018-11-11T05:57:11.618Z,6.97
2018-11-11T05:59:23.828Z,6.00
2018-11-11T06:01:36.171Z,3.20
2018-11-11T06:03:48.390Z,2.93
2018-11-11T06:06:00.603Z,2.67
2018-11-11T06:08:12.785Z,2.80
2018-11-11T06:10:25.032Z,2.70
2018-11-11T06:12:37.244Z,2.93
2018-11-11T06:14:49.418Z,2.67
2018-11-11T06:17:01.679Z,2.73
2018-11-11T06:19:13.885Z,3.53
2018-11-11T06:21:26.079Z,4.60
2018-11-11T06:23:38.286Z,5.50
2018-11-11T06:25:50.508Z,4.87
2018-11-11T06:28:02.708Z,5.60
2018-11-11T06:30:14.893Z,6.60
2018-11-11T06:32:27.132Z,6.87
2018-11-11T06:34:39.353Z,7.20
2018-11-11T06:36:51.532Z,6.60
2018-11-11T06:39:06.086Z,6.10
2018-11-11T06:41:18.298Z,5.90
2018-11-11T06:43:30.518Z,4.17
2018-11-11T06:45:42.707Z,3.27
2018-11-11T06:47:54.957Z,3.10
2018-11-11T06:50:08.457Z,3.13
2018-11-11T06:52:20.699Z,3.37
2018-11-11T06:54:32.882Z,3.53
2018-11-11T06:56:45.079Z,4.00
2018-11-11T06:58:57.311Z,4.27
2018-11-11T07:01:09.499Z,4.90
2018-11-11T07:03:33.054Z,4.63
2018-11-11T07:05:45.259Z,5.10
2018-11-11T07:07:57.458Z,4.83
2018-11-11T07:10:09.751Z,5.30
2018-11-11T07:12:22.054Z,5.60
2018-11-11T07:14:34.260Z,5.60
2018-11-11T07:16:46.462Z,5.80
2018-11-11T07:18:58.682Z,5.40
2018-11-11T07:21:10.909Z,6.77
2018-11-11T07:23:23.212Z,5.93
2018-11-11T07:25:35.354Z,5.63
2018-11-11T07:27:47.585Z,5.93
2018-11-11T07:29:59.794Z,6.10
2018-11-11T07:32:12.011Z,5.40
2018-11-11T07:34:24.247Z,6.43
2018-11-11T07:36:36.468Z,6.10
2018-11-11T07:38:48.779Z,6.53
2018-11-11T07:41:00.960Z,6.37
2018-11-11T07:43:13.150Z,6.20
2018-11-11T07:45:25.361Z,6.63
2018-11-11T07:47:37.581Z,6.63
2018-11-11T07:49:49.804Z,6.27
2018-11-11T07:52:02.064Z,5.93
2018-11-11T07:54:14.247Z,6.70
2018-11-11T07:56:26.583Z,5.93
2018-11-11T07:58:38.936Z,6.50
2018-11-11T08:00:51.134Z,6.57
2018-11-11T08:03:03.397Z,6.07
2018-11-11T08:05:15.697Z,6.27
2018-11-11T08:07:27.889Z,6.40
2018-11-11T08:09:40.102Z,6.07
2018-11-11T08:12:00.312Z,6.20
2018-11-11T08:14:12.511Z,6.57
2018-11-11T08:16:24.731Z,6.63
2018-11-11T08:18:36.943Z,6.07
2018-11-11T08:20:49.229Z,6.73
2018-11-11T08:23:01.438Z,6.93
2018-11-11T08:25:13.717Z,7.10
2018-11-11T08:27:25.870Z,7.03
2018-11-11T08:29:38.097Z,7.30
2018-11-11T08:31:50.335Z,7.60
2018-11-11T08:34:02.629Z,7.40
2018-11-11T08:36:14.891Z,6.93
2018-11-11T08:38:27.119Z,7.90
2018-11-11T08:40:39.525Z,7.23
2018-11-11T08:42:51.722Z,7.33
2018-11-11T08:45:04.925Z,7.43
2018-11-11T08:47:17.235Z,7.00
2018-11-11T08:49:29.469Z,7.93
2018-11-11T08:51:41.738Z,7.40
2018-11-11T08:53:54.020Z,7.70
2018-11-11T08:56:06.250Z,7.10
2018-11-11T08:58:18.455Z,7.73
2018-11-11T09:00:30.658Z,7.63
2018-11-11T09:02:42.918Z,7.77
2018-11-11T09:04:55.309Z,6.73
2018-11-11T09:07:07.550Z,6.57
2018-11-11T09:09:19.783Z,5.37
2018-11-11T09:11:32.106Z,5.60
2018-11-11T09:13:44.304Z,5.13
2018-11-11T09:15:56.540Z,5.80
2018-11-11T09:18:08.796Z,5.47
2018-11-11T09:20:20.994Z,4.60
2018-11-11T09:22:33.281Z,4.70
2018-11-11T09:24:45.626Z,4.77
2018-11-11T09:26:57.856Z,4.73
2018-11-11T09:29:10.145Z,4.53
2018-11-11T09:31:22.408Z,4.27
2018-11-11T09:33:34.695Z,3.97
2018-11-11T09:35:46.923Z,4.43
2018-11-11T09:37:59.159Z,3.73
2018-11-11T09:40:12.570Z,3.50
2018-11-11T09:42:25.389Z,3.80
2018-11-11T09:44:37.626Z,3.57
2018-11-11T09:46:49.923Z,3.40
2018-11-11T09:49:02.194Z,3.37
2018-11-11T09:51:14.432Z,3.43
2018-11-11T09:53:26.669Z,3.20
2018-11-11T09:55:38.946Z,3.00
2018-11-11T09:57:51.224Z,3.20
2018-11-11T10:00:04.218Z,2.90
2018-11-11T10:02:16.879Z,3.63
2018-11-11T10:04:37.717Z,3.30
2018-11-11T10:07:20.742Z,3.03
2018-11-11T10:09:38.612Z,3.40
2018-11-11T10:11:56.423Z,3.37
2018-11-11T10:14:14.258Z,3.70
2018-11-11T10:16:38.956Z,3.30
2018-11-11T10:19:01.983Z,2.70
2018-11-11T10:21:19.602Z,3.17
2018-11-11T10:23:38.401Z,3.60
2018-11-11T10:26:04.694Z,3.50
2018-11-11T10:30:29.884Z,3.67
2018-11-11T10:33:17.962Z,3.10
2018-11-11T10:35:35.783Z,2.50
2018-11-11T10:37:52.434Z,2.93
2018-11-11T10:40:13.150Z,2.70
2018-11-11T10:43:04.697Z,2.57
2018-11-11T10:45:23.473Z,1.90
2018-11-11T10:47:39.429Z,1.97
2018-11-11T10:49:53.731Z,1.97
2018-11-11T10:52:06.160Z,1.80
2018-11-11T10:54:18.476Z,2.00
2018-11-11T10:56:30.715Z,2.10
2018-11-11T10:58:43.004Z,1.90
2018-11-11T11:01:00.906Z,2.07
2018-11-11T11:03:18.812Z,1.90
2018-11-11T11:05:31.083Z,2.60
2018-11-11T11:07:43.363Z,2.67
2018-11-11T11:09:55.700Z,2.43
2018-11-11T11:12:08.036Z,2.83
2018-11-11T11:14:20.287Z,2.20
2018-11-11T11:16:32.479Z,2.47
2018-11-11T11:18:44.730Z,1.87
2018-11-11T11:20:57.013Z,2.00
2018-11-11T11:23:09.458Z,1.43
2018-11-11T11:25:21.595Z,1.47
2018-11-11T11:27:33.883Z,1.70
2018-11-11T11:29:46.262Z,1.83
2018-11-11T11:31:58.527Z,1.60
2018-11-11T11:34:10.755Z,1.70
2018-11-11T11:36:23.063Z,1.57
2018-11-11T11:38:35.378Z,1.50
2018-11-11T11:40:47.769Z,1.70
2018-11-11T11:43:00.019Z,1.60
2018-11-11T11:45:12.371Z,1.57
2018-11-11T11:47:24.613Z,1.60
2018-11-11T11:49:36.859Z,1.70
2018-11-11T11:51:49.123Z,1.40
2018-11-11T11:54:01.407Z,1.40
2018-11-11T11:56:13.659Z,1.50
2018-11-11T11:58:27.259Z,1.30
2018-11-11T12:00:39.597Z,1.50
2018-11-11T12:02:51.890Z,1.60
2018-11-11T12:05:05.208Z,1.70
2018-11-11T12:07:17.471Z,1.50
2018-11-11T12:09:29.766Z,1.50
2018-11-11T12:11:42.015Z,1.80
2018-11-11T12:13:54.246Z,1.63
2018-11-11T12:16:06.453Z,1.40
2018-11-11T12:18:18.746Z,1.40
2018-11-11T12:20:30.977Z,1.83
2018-11-11T12:22:43.299Z,1.33
2018-11-11T12:24:55.565Z,1.10
2018-11-11T12:27:07.927Z,1.10
2018-11-11T12:29:20.166Z,1.20
2018-11-11T12:31:32.424Z,1.00
2018-11-11T12:33:44.722Z,0.93
2018-11-11T12:35:57.075Z,0.73
2018-11-11T12:38:09.306Z,0.53
2018-11-11T12:40:21.649Z,0.80
2018-11-11T12:42:33.881Z,1.10
2018-11-11T12:44:46.135Z,1.00
2018-11-11T12:46:58.453Z,0.90
2018-11-11T12:49:10.698Z,0.87
2018-11-11T12:51:22.934Z,1.03
2018-11-11T12:53:35.226Z,0.80
2018-11-11T12:55:47.463Z,1.10
2018-11-11T12:57:59.714Z,1.03
2018-11-11T13:00:13.419Z,0.90
2018-11-11T13:02:25.679Z,0.70
2018-11-11T13:04:38.032Z,0.73
2018-11-11T13:06:50.240Z,0.80
2018-11-11T13:09:03.840Z,0.60
2018-11-11T13:11:16.184Z,0.77
2018-11-11T13:13:28.470Z,0.60
2018-11-11T13:15:40.738Z,0.50
2018-11-11T13:17:53.011Z,0.83
2018-11-11T13:20:07.590Z,0.70
2018-11-11T13:22:19.902Z,0.70
2018-11-11T13:24:32.047Z,0.93
2018-11-11T13:26:44.301Z,0.60
2018-11-11T13:28:56.513Z,0.57
2018-11-11T13:31:08.757Z,1.03
2018-11-11T13:33:21.011Z,1.73
2018-11-11T13:35:33.205Z,4.43
2018-11-11T13:37:45.528Z,6.77
2018-11-11T13:39:59.498Z,4.43
2018-11-11T13:42:11.732Z,5.23
2018-11-11T13:44:23.984Z,2.10
2018-11-11T13:46:36.704Z,1.90
2018-11-11T13:48:48.847Z,0.80
2018-11-11T13:51:01.094Z,0.93
2018-11-11T13:53:13.452Z,1.00
2018-11-11T13:55:25.797Z,0.67
2018-11-11T13:57:38.106Z,1.00
2018-11-11T13:59:50.383Z,0.77
2018-11-11T14:02:02.691Z,1.00
2018-11-11T14:04:15.016Z,0.90
2018-11-11T14:06:27.325Z,0.80
2018-11-11T14:08:39.568Z,0.80
2018-11-11T14:10:51.930Z,1.00
2018-11-11T14:13:04.483Z,0.90
2018-11-11T14:15:18.565Z,0.87
2018-11-11T14:17:30.880Z,1.10
2018-11-11T14:19:43.209Z,1.00
2018-11-11T14:21:55.407Z,0.80
2018-11-11T14:24:07.749Z,1.30
2018-11-11T14:26:20.112Z,1.00
2018-11-11T14:28:32.357Z,0.90
2018-11-11T14:30:44.610Z,1.00
2018-11-11T14:32:57.942Z,1.20
2018-11-11T14:35:11.015Z,0.80
2018-11-11T14:37:23.250Z,0.97
2018-11-11T14:39:35.549Z,0.80
2018-11-11T14:41:47.831Z,1.10
2018-11-11T14:44:00.105Z,0.83
2018-11-11T14:46:12.496Z,1.00
2018-11-11T14:48:24.761Z,0.80
2018-11-11T14:50:37.107Z,1.13
2018-11-11T14:52:49.495Z,1.00
2018-11-11T14:55:02.009Z,0.97
2018-11-11T14:57:14.309Z,1.60
2018-11-11T14:59:26.636Z,1.73
2018-11-11T15:01:38.910Z,1.60
2018-11-11T15:03:51.178Z,1.50
2018-11-11T15:06:03.553Z,1.47
2018-11-11T15:08:15.874Z,1.20
2018-11-11T15:10:28.164Z,1.00
2018-11-11T15:12:40.610Z,1.00
2018-11-11T15:14:52.931Z,0.90
2018-11-11T15:17:05.245Z,0.87
2018-11-11T15:19:17.597Z,0.87
2018-11-11T15:21:29.832Z,0.87
2018-11-11T15:23:42.090Z,0.97
2018-11-11T15:25:55.239Z,0.90
2018-11-11T15:28:07.702Z,0.97
2018-11-11T15:30:22.015Z,0.70
2018-11-11T15:32:34.250Z,0.93
2018-11-11T15:34:46.545Z,0.70
2018-11-11T15:36:58.870Z,0.90
2018-11-11T15:39:11.430Z,0.87
2018-11-11T15:41:23.738Z,0.83
2018-11-11T15:43:35.979Z,0.87
2018-11-11T15:45:48.252Z,0.93
2018-11-11T15:48:02.767Z,0.60
2018-11-11T15:50:16.893Z,0.77
2018-11-11T15:52:29.233Z,0.90
2018-11-11T15:54:41.515Z,1.00
2018-11-11T15:56:53.836Z,0.90
2018-11-11T15:59:06.204Z,1.00
2018-11-11T16:01:18.512Z,0.90
2018-11-11T16:03:30.738Z,0.80
2018-11-11T16:05:43.011Z,1.17
2018-11-11T16:07:56.181Z,1.23
2018-11-11T16:10:10.370Z,0.87
2018-11-11T16:12:22.654Z,1.00
2018-11-11T16:14:35.011Z,0.80
2018-11-11T16:16:47.303Z,1.20
2018-11-11T16:18:59.588Z,0.80
2018-11-11T16:21:11.887Z,0.90
2018-11-11T16:23:24.217Z,1.10
2018-11-11T16:25:36.593Z,1.20
2018-11-11T16:27:49.185Z,1.10
2018-11-11T16:30:01.466Z,1.10
2018-11-11T16:32:13.782Z,1.20
2018-11-11T16:34:26.054Z,1.10
2018-11-11T16:36:38.443Z,1.27
2018-11-11T16:38:50.664Z,1.33
2018-11-11T16:41:03.713Z,1.53
2018-11-11T16:43:15.847Z,2.30
2018-11-11T16:45:29.964Z,1.90
2018-11-11T16:47:42.390Z,1.53
2018-11-11T16:50:00.583Z,2.07
2018-11-11T16:52:12.871Z,2.00
2018-11-11T16:54:25.131Z,2.40
2018-11-11T16:56:37.440Z,1.73
2018-11-11T16:58:49.723Z,2.37
2018-11-11T17:01:02.045Z,1.60
2018-11-11T17:03:14.371Z,2.30
2018-11-11T17:05:28.167Z,2.23
2018-11-11T17:07:40.448Z,2.43
2018-11-11T17:09:52.739Z,2.40
2018-11-11T17:12:05.700Z,2.30
2018-11-11T17:14:18.021Z,2.90
2018-11-11T17:16:30.271Z,3.40
2018-11-11T17:18:42.569Z,3.33
2018-11-11T17:20:54.916Z,3.50
2018-11-11T17:23:07.777Z,3.40
2018-11-11T17:25:21.260Z,3.57
2018-11-11T17:27:33.517Z,3.70
2018-11-11T17:29:45.934Z,3.23
2018-11-11T17:31:58.174Z,2.67
2018-11-11T17:34:10.426Z,2.70
2018-11-11T17:36:22.743Z,2.87
2018-11-11T17:38:35.056Z,3.07
2018-11-11T17:40:47.351Z,3.00
2018-11-11T17:43:00.455Z,3.47
2018-11-11T17:45:13.244Z,3.73
2018-11-11T17:47:25.564Z,3.30
2018-11-11T17:49:37.948Z,3.07
2018-11-11T17:51:50.302Z,3.40
2018-11-11T17:54:02.614Z,3.17
2018-11-11T17:56:14.835Z,2.50
2018-11-11T17:58:27.122Z,2.90
2018-11-11T18:00:39.455Z,3.40
2018-11-11T18:02:52.223Z,2.30
2018-11-11T18:05:05.425Z,2.60
2018-11-11T18:07:17.697Z,2.77
2018-11-11T18:09:29.909Z,2.43
2018-11-11T18:11:42.258Z,2.50
2018-11-11T18:13:55.446Z,2.53
2018-11-11T18:16:07.637Z,2.30
2018-11-11T18:18:19.987Z,2.33
2018-11-11T18:20:32.836Z,2.43
2018-11-11T18:22:45.507Z,2.80
2018-11-11T18:24:57.875Z,2.83
2018-11-11T18:27:10.193Z,2.87
2018-11-11T18:29:22.600Z,2.73
2018-11-11T18:31:34.878Z,2.83
2018-11-11T18:33:47.118Z,2.90
2018-11-11T18:35:59.436Z,2.83
2018-11-11T18:38:11.674Z,2.73
2018-11-11T18:40:25.260Z,2.87
2018-11-11T18:42:37.569Z,2.60
2018-11-11T18:44:49.877Z,2.67
2018-11-11T18:47:02.107Z,2.90
2018-11-11T18:49:14.400Z,2.70
2018-11-11T18:51:26.747Z,2.90
2018-11-11T18:53:39.067Z,2.70
2018-11-11T18:55:51.374Z,2.67
2018-11-11T18:58:03.750Z,2.77
2018-11-11T19:00:18.671Z,2.87
2018-11-11T19:02:30.993Z,2.50
2018-11-11T19:04:43.254Z,2.20
2018-11-11T19:06:55.594Z,2.40
2018-11-11T19:09:09.786Z,2.60
2018-11-11T19:11:22.101Z,2.50
2018-11-11T19:13:34.451Z,2.03
2018-11-11T19:15:46.694Z,1.97
2018-11-11T19:17:58.993Z,2.30
2018-11-11T19:20:13.359Z,2.20
2018-11-11T19:22:25.827Z,2.30
2018-11-11T19:24:38.213Z,2.40
2018-11-11T19:26:50.379Z,2.20
2018-11-11T19:29:02.702Z,2.50
2018-11-11T19:31:15.119Z,2.43
2018-11-11T19:33:27.486Z,2.60
2018-11-11T19:35:39.823Z,2.70
2018-11-11T19:37:53.224Z,3.03
2018-11-11T19:40:10.580Z,2.60
2018-11-11T19:42:22.955Z,2.37
2018-11-11T19:44:35.236Z,2.50
2018-11-11T19:46:47.571Z,2.83
2018-11-11T19:48:59.952Z,2.30
2018-11-11T19:51:12.292Z,2.33
2018-11-11T19:53:24.757Z,2.57
2018-11-11T19:55:37.132Z,2.60
2018-11-11T19:57:49.599Z,2.40
2018-11-11T20:00:01.976Z,2.30
2018-11-11T20:02:14.438Z,2.03
2018-11-11T20:04:26.876Z,2.20
2018-11-11T20:06:39.322Z,1.90
2018-11-11T20:08:51.645Z,2.23
2018-11-11T20:11:04.505Z,2.57
2018-11-11T20:13:17.056Z,2.40
2018-11-11T20:15:30.748Z,2.30
2018-11-11T20:17:43.753Z,1.93
2018-11-11T20:19:56.241Z,2.27
2018-11-11T20:22:08.536Z,2.23
2018-11-11T20:24:20.966Z,2.00
2018-11-11T20:26:33.201Z,1.70
2018-11-11T20:28:45.534Z,1.67
2018-11-11T20:30:57.876Z,1.93
2018-11-11T20:33:10.237Z,1.97
2018-11-11T20:35:24.064Z,1.87
2018-11-11T20:37:36.655Z,1.83
2018-11-11T20:39:48.939Z,2.10
2018-11-11T20:42:01.183Z,1.70
2018-11-11T20:44:13.503Z,2.00
2018-11-11T20:46:25.732Z,1.70
2018-11-11T20:48:38.362Z,1.70
2018-11-11T20:50:50.672Z,1.90
2018-11-11T20:53:04.236Z,1.80
2018-11-11T20:55:17.292Z,1.90
2018-11-11T20:57:29.607Z,1.70
2018-11-11T20:59:41.985Z,1.40
2018-11-11T21:01:54.335Z,1.70
2018-11-11T21:04:06.620Z,1.80
2018-11-11T21:06:18.955Z,1.77
2018-11-11T21:08:31.265Z,1.70
2018-11-11T21:10:43.641Z,1.70
2018-11-11T21:12:56.160Z,1.50
2018-11-11T21:15:10.682Z,1.70
2018-11-11T21:17:23.030Z,1.70
2018-11-11T21:19:35.264Z,1.60
2018-11-11T21:21:47.541Z,1.40
2018-11-11T21:23:59.765Z,1.47
2018-11-11T21:26:12.033Z,1.40
2018-11-11T21:28:24.325Z,1.40
2018-11-11T21:30:36.623Z,1.43
2018-11-11T21:32:49.078Z,1.60
2018-11-11T21:35:01.308Z,1.77
2018-11-11T21:37:13.604Z,1.40
2018-11-11T21:39:25.826Z,1.57
2018-11-11T21:41:38.138Z,1.77
2018-11-11T21:43:50.449Z,1.57
2018-11-11T21:46:02.678Z,1.60
2018-11-11T21:48:14.957Z,1.60
2018-11-11T21:50:27.818Z,1.50
2018-11-11T21:52:40.802Z,2.03
2018-11-11T21:54:53.095Z,1.67
2018-11-11T21:57:05.475Z,1.60
2018-11-11T21:59:17.795Z,1.57
2018-11-11T22:01:30.066Z,1.67
2018-11-11T22:03:42.362Z,1.80
2018-11-11T22:05:54.854Z,1.60
2018-11-11T22:08:07.203Z,1.90
2018-11-11T22:10:19.552Z,1.63
2018-11-11T22:12:31.778Z,1.60
2018-11-11T22:14:44.028Z,1.47
2018-11-11T22:16:56.325Z,1.67
2018-11-11T22:19:08.539Z,1.80
2018-11-11T22:21:20.734Z,1.60
2018-11-11T22:23:32.942Z,1.63
2018-11-11T22:25:45.181Z,1.47
2018-11-11T22:27:57.472Z,1.60
2018-11-11T22:30:11.027Z,1.80
2018-11-11T22:32:23.274Z,1.60
2018-11-11T22:34:35.541Z,1.57
2018-11-11T22:36:47.821Z,1.67
2018-11-11T22:38:59.975Z,1.60
2018-11-11T22:41:12.299Z,1.60
2018-11-11T22:43:24.563Z,1.80
2018-11-11T22:45:36.823Z,1.60
2018-11-11T22:47:49.087Z,1.80
2018-11-11T22:50:01.294Z,1.93
2018-11-11T22:52:13.531Z,1.40
2018-11-11T22:54:25.819Z,1.53
2018-11-11T22:56:38.044Z,1.50
2018-11-11T22:58:50.261Z,1.60
2018-11-11T23:01:08.315Z,1.53
2018-11-11T23:03:20.542Z,1.60
2018-11-11T23:05:32.832Z,1.50
2018-11-11T23:07:45.195Z,1.47
2018-11-11T23:09:57.431Z,1.80
2018-11-11T23:12:09.621Z,1.60
2018-11-11T23:14:21.817Z,1.60
2018-11-11T23:16:34.052Z,1.27
2018-11-11T23:18:46.318Z,1.57
2018-11-11T23:20:58.568Z,1.43
2018-11-11T23:23:10.775Z,1.50
2018-11-11T23:25:23.015Z,1.53
2018-11-11T23:27:35.375Z,1.60
2018-11-11T23:29:47.605Z,1.63
2018-11-11T23:31:59.871Z,1.57
2018-11-11T23:34:12.219Z,1.87
2018-11-11T23:36:24.439Z,1.80
2018-11-11T23:38:36.741Z,1.73
2018-11-11T23:40:48.993Z,1.90
2018-11-11T23:43:01.199Z,1.87
2018-11-11T23:45:13.531Z,1.90
2018-11-11T23:47:25.730Z,2.60
2018-11-11T23:49:37.943Z,2.50
2018-11-11T23:51:50.205Z,2.37
2018-11-11T23:54:02.443Z,2.87
2018-11-11T23:56:14.631Z,2.50
2018-11-11T23:58:26.902Z,2.10
